Time,TemperatureF,DewpointF,PressureIn,WindDirection,WindDirectionDegrees,WindSpeedMPH,WindSpeedGustMPH,Humidity,HourlyPrecipIn,Conditions,Clouds,dailyrainin,SolarRadiationWatts/m^2,SoftwareType,DateUTC
2013-09-05 00:05:00,70.8,64.0,30.03,NNE,22,0.0,0.0,79,0.00,,,0.00,0,Wunderground v.1.15,2013-09-04 22:05:00,
2013-09-05 00:15:00,70.8,64.0,30.03,NNE,21,0.0,0.0,79,0.00,,,0.00,0,Wunderground v.1.15,2013-09-04 22:15:00,
2013-09-05 00:25:00,70.7,63.9,30.03,NNE,22,0.0,0.0,79,0.00,,,0.00,0,Wunderground v.1.15,2013-09-04 22:25:00,
2013-09-05 00:35:00,70.5,63.7,30.03,NNE,22,0.0,2.0,79,0.00,,,0.00,0,Wunderground v.1.15,2013-09-04 22:35:00,
2013-09-05 00:46:00,70.1,62.9,30.03,NW,313,2.0,2.0,78,0.00,,,0.00,0,Wunderground v.1.15,2013-09-04 22:46:00,
2013-09-05 01:05:00,69.3,62.5,30.02,West,281,3.0,3.0,79,0.00,,,0.00,0,Wunderground v.1.15,2013-09-04 23:05:00,
2013-09-05 01:15:00,69.0,61.9,30.02,WNW,283,2.0,2.0,78,0.00,,,0.00,0,Wunderground v.1.15,2013-09-04 23:15:00,
2013-09-05 01:25:00,68.8,61.7,30.02,WNW,283,1.0,2.0,78,0.00,,,0.00,0,Wunderground v.1.15,2013-09-04 23:25:00,
2013-09-05 01:35:00,68.4,60.5,30.02,WNW,283,2.0,2.0,76,0.00,,,0.00,0,Wunderground v.1.15,2013-09-04 23:35:00,
2013-09-05 01:50:00,67.9,59.3,30.02,WNW,283,0.0,0.0,74,0.00,,,0.00,0,Wunderground v.1.15,2013-09-04 23:50:00,
2013-09-05 02:05:00,67.8,58.8,30.01,WNW,283,2.0,3.0,73,0.00,,,0.00,0,Wunderground v.1.15,2013-09-05 00:05:00,
2013-09-05 02:11:00,67.4,57.7,30.01,WNW,283,2.0,3.0,71,0.00,,,0.00,0,Wunderground v.1.15,2013-09-05 00:11:00,
2013-09-05 02:25:00,67.3,56.0,30.00,West,274,2.0,2.0,67,0.00,,,0.00,0,Wunderground v.1.15,2013-09-05 00:25:00,
2013-09-05 02:36:00,67.5,55.7,30.00,West,274,0.0,1.0,66,0.00,,,0.00,0,Wunderground v.1.15,2013-09-05 00:36:00,
2013-09-05 02:50:00,67.5,55.3,29.99,West,274,0.0,0.0,65,0.00,,,0.00,0,Wunderground v.1.15,2013-09-05 00:50:00,
2013-09-05 03:05:00,67.4,54.8,29.99,West,273,0.0,0.0,64,0.00,,,0.00,0,Wunderground v.1.15,2013-09-05 01:05:00,
2013-09-05 03:20:00,66.8,54.2,29.98,West,274,2.0,2.0,64,0.00,,,0.00,0,Wunderground v.1.15,2013-09-05 01:20:00,
2013-09-05 03:30:00,66.6,54.0,29.99,West,273,2.0,3.0,64,0.00,,,0.00,0,Wunderground v.1.15,2013-09-05 01:30:00,
2013-09-05 03:45:00,66.6,53.6,29.98,West,274,2.0,4.0,63,0.00,,,0.00,0,Wunderground v.1.15,2013-09-05 01:45:00,
2013-09-05 03:56:00,66.9,53.5,29.98,West,274,2.0,2.0,62,0.00,,,0.00,0,Wunderground v.1.15,2013-09-05 01:56:00,
2013-09-05 04:05:00,67.2,53.3,29.98,West,274,2.0,2.0,61,0.00,,,0.00,0,Wunderground v.1.15,2013-09-05 02:05:00,
2013-09-05 04:15:00,67.2,53.7,29.98,West,268,1.0,1.0,62,0.00,,,0.00,0,Wunderground v.1.15,2013-09-05 02:15:00,
2013-09-05 04:25:00,67.0,54.0,29.97,West,268,0.0,0.0,63,0.00,,,0.00,0,Wunderground v.1.15,2013-09-05 02:25:00,
2013-09-05 04:35:00,66.3,53.3,29.97,West,275,2.0,3.0,63,0.00,,,0.00,0,Wunderground v.1.15,2013-09-05 02:35:00,
2013-09-05 04:50:00,66.1,53.6,29.97,WNW,282,2.0,2.0,64,0.00,,,0.00,0,Wunderground v.1.15,2013-09-05 02:50:00,
2013-09-05 04:56:00,66.4,54.7,29.96,West,281,2.0,2.0,66,0.00,,,0.00,0,Wunderground v.1.15,2013-09-05 02:56:00,
2013-09-05 05:05:00,66.3,53.8,29.97,WNW,282,0.0,0.0,64,0.00,,,0.00,0,Wunderground v.1.15,2013-09-05 03:05:00,
2013-09-05 05:15:00,65.8,53.3,29.96,West,281,1.0,1.0,64,0.00,,,0.00,0,Wunderground v.1.15,2013-09-05 03:15:00,
2013-09-05 05:25:00,65.8,54.1,29.96,West,281,1.0,1.0,66,0.00,,,0.00,0,Wunderground v.1.15,2013-09-05 03:25:00,
2013-09-05 05:40:00,65.8,54.1,29.96,WNW,282,0.0,1.0,66,0.00,,,0.00,0,Wunderground v.1.15,2013-09-05 03:40:00,
2013-09-05 05:50:00,65.4,53.3,29.95,West,281,1.0,5.0,65,0.00,,,0.00,0,Wunderground v.1.15,2013-09-05 03:50:00,
2013-09-05 05:56:00,65.2,52.3,29.95,West,281,2.0,5.0,63,0.00,,,0.00,0,Wunderground v.1.15,2013-09-05 03:56:00,
2013-09-05 06:05:00,65.5,53.0,29.95,WNW,282,2.0,2.0,64,0.00,,,0.00,0,Wunderground v.1.15,2013-09-05 04:05:00,
2013-09-05 06:11:00,65.6,53.1,29.95,WNW,283,2.0,2.0,64,0.00,,,0.00,0,Wunderground v.1.15,2013-09-05 04:11:00,
2013-09-05 06:15:00,65.6,53.1,29.95,WNW,283,2.0,2.0,64,0.00,,,0.00,0,Wunderground v.1.15,2013-09-05 04:15:00,
2013-09-05 06:25:00,65.6,53.5,29.95,WNW,283,0.0,0.0,65,0.00,,,0.00,0,Wunderground v.1.15,2013-09-05 04:25:00,
2013-09-05 06:30:00,65.5,53.4,29.95,WNW,283,0.0,1.0,65,0.00,,,0.00,0,Wunderground v.1.15,2013-09-05 04:30:00,
2013-09-05 06:40:00,65.4,53.7,29.95,WNW,288,2.0,2.0,66,0.00,,,0.00,0,Wunderground v.1.15,2013-09-05 04:40:00,
2013-09-05 06:50:00,65.7,54.8,29.95,WNW,288,1.0,1.0,68,0.00,,,0.00,0,Wunderground v.1.15,2013-09-05 04:50:00,
2013-09-05 07:05:00,66.0,55.9,29.95,WNW,288,0.0,0.0,70,0.00,,,0.00,0,Wunderground v.1.15,2013-09-05 05:05:00,
2013-09-05 07:20:00,67.6,60.1,29.95,WNW,288,1.0,1.0,77,0.00,,,0.00,0,Wunderground v.1.15,2013-09-05 05:20:00,
2013-09-05 07:35:00,67.0,59.2,29.95,WNW,288,1.0,1.0,76,0.00,,,0.00,12,Wunderground v.1.15,2013-09-05 05:35:00,
2013-09-05 07:45:00,66.7,58.9,29.95,WNW,288,0.0,1.0,76,0.00,,,0.00,35,Wunderground v.1.15,2013-09-05 05:45:00,
2013-09-05 07:50:00,66.7,58.9,29.95,WNW,287,0.0,1.0,76,0.00,,,0.00,44,Wunderground v.1.15,2013-09-05 05:50:00,
2013-09-05 08:06:00,66.7,58.9,29.94,WNW,287,1.0,1.0,76,0.00,,,0.00,98,Wunderground v.1.15,2013-09-05 06:06:00,
2013-09-05 08:20:00,67.1,58.9,29.95,WNW,287,2.0,2.0,75,0.00,,,0.00,144,Wunderground v.1.15,2013-09-05 06:20:00,
2013-09-05 08:26:00,67.3,58.7,29.95,WNW,287,1.0,2.0,74,0.00,,,0.00,156,Wunderground v.1.15,2013-09-05 06:26:00,
2013-09-05 08:35:00,68.2,59.6,29.95,WNW,288,0.0,1.0,74,0.00,,,0.00,190,Wunderground v.1.15,2013-09-05 06:35:00,
2013-09-05 08:46:00,69.4,61.1,29.94,WNW,288,0.0,0.0,75,0.00,,,0.00,220,Wunderground v.1.15,2013-09-05 06:46:00,
2013-09-05 08:50:00,70.1,61.8,29.94,WNW,288,0.0,1.0,75,0.00,,,0.00,237,Wunderground v.1.15,2013-09-05 06:50:00,
2013-09-05 09:05:00,72.6,64.2,29.95,NNE,24,1.0,1.0,75,0.00,,,0.00,288,Wunderground v.1.15,2013-09-05 07:05:00,
2013-09-05 09:15:00,73.4,64.2,29.94,NNE,24,1.0,1.0,73,0.00,,,0.00,318,Wunderground v.1.15,2013-09-05 07:15:00,
2013-09-05 09:21:00,73.9,64.7,29.94,NNE,24,1.0,1.0,73,0.00,,,0.00,338,Wunderground v.1.15,2013-09-05 07:21:00,
2013-09-05 09:35:00,75.4,64.9,29.95,ENE,68,1.0,2.0,70,0.00,,,0.00,385,Wunderground v.1.15,2013-09-05 07:35:00,
2013-09-05 09:45:00,76.2,64.9,29.94,ENE,78,2.0,2.0,68,0.00,,,0.00,417,Wunderground v.1.15,2013-09-05 07:45:00,
2013-09-05 09:55:00,76.9,65.1,29.95,East,83,3.0,3.0,67,0.00,,,0.00,448,Wunderground v.1.15,2013-09-05 07:55:00,
2013-09-05 10:10:00,77.8,64.2,29.95,NE,49,2.0,2.0,63,0.00,,,0.00,506,Wunderground v.1.15,2013-09-05 08:10:00,
2013-09-05 10:20:00,78.7,64.1,29.95,ENE,61,1.0,1.0,61,0.00,,,0.00,527,Wunderground v.1.15,2013-09-05 08:20:00,
2013-09-05 10:30:00,79.7,64.1,29.95,SE,126,1.0,3.0,59,0.00,,,0.00,555,Wunderground v.1.15,2013-09-05 08:30:00,
2013-09-05 10:40:00,80.5,63.4,29.95,SE,137,2.0,3.0,56,0.00,,,0.00,582,Wunderground v.1.15,2013-09-05 08:40:00,
2013-09-05 10:50:00,81.2,63.5,29.95,ENE,59,2.0,2.0,55,0.00,,,0.00,608,Wunderground v.1.15,2013-09-05 08:50:00,
2013-09-05 11:05:00,82.0,63.2,29.95,SE,138,2.0,4.0,53,0.00,,,0.00,643,Wunderground v.1.15,2013-09-05 09:05:00,
2013-09-05 11:16:00,81.6,62.3,29.95,SE,145,4.0,4.0,52,0.00,,,0.00,670,Wunderground v.1.15,2013-09-05 09:16:00,
2013-09-05 11:25:00,82.0,63.7,29.95,East,97,3.0,6.0,54,0.00,,,0.00,684,Wunderground v.1.15,2013-09-05 09:25:00,
2013-09-05 11:30:00,82.1,62.2,29.95,NE,55,3.0,3.0,51,0.00,,,0.00,705,Wunderground v.1.15,2013-09-05 09:30:00,
2013-09-05 11:40:00,82.7,62.2,29.95,ESE,103,3.0,3.0,50,0.00,,,0.00,719,Wunderground v.1.15,2013-09-05 09:40:00,
2013-09-05 11:50:00,83.3,61.6,29.94,NE,56,2.0,4.0,48,0.00,,,0.00,749,Wunderground v.1.15,2013-09-05 09:50:00,
2013-09-05 12:05:00,83.8,60.2,29.94,East,85,3.0,3.0,45,0.00,,,0.00,775,Wunderground v.1.15,2013-09-05 10:05:00,
2013-09-05 12:15:00,84.0,60.4,29.94,East,99,3.0,3.0,45,0.00,,,0.00,788,Wunderground v.1.15,2013-09-05 10:15:00,
2013-09-05 12:25:00,84.0,59.1,29.94,ESE,106,3.0,5.0,43,0.00,,,0.00,805,Wunderground v.1.15,2013-09-05 10:25:00,
2013-09-05 12:40:00,85.0,58.7,29.93,East,92,3.0,3.0,41,0.00,,,0.00,823,Wunderground v.1.15,2013-09-05 10:40:00,
2013-09-05 12:50:00,84.8,59.2,29.93,East,83,3.0,3.0,42,0.00,,,0.00,828,Wunderground v.1.15,2013-09-05 10:50:00,
2013-09-05 13:05:00,86.2,59.7,29.93,NNE,32,2.0,2.0,41,0.00,,,0.00,838,Wunderground v.1.15,2013-09-05 11:05:00,
2013-09-05 13:10:00,86.6,60.1,29.93,SE,126,2.0,4.0,41,0.00,,,0.00,847,Wunderground v.1.15,2013-09-05 11:10:00,
2013-09-05 13:15:00,86.3,59.8,29.93,SE,146,3.0,3.0,41,0.00,,,0.00,846,Wunderground v.1.15,2013-09-05 11:15:00,
2013-09-05 13:25:00,86.7,60.2,29.92,East,82,3.0,3.0,41,0.00,,,0.00,856,Wunderground v.1.15,2013-09-05 11:25:00,
2013-09-05 13:35:00,86.9,60.4,29.92,East,98,3.0,5.0,41,0.00,,,0.00,856,Wunderground v.1.15,2013-09-05 11:35:00,
2013-09-05 13:40:00,86.6,60.1,29.92,East,84,4.0,4.0,41,0.00,,,0.00,858,Wunderground v.1.15,2013-09-05 11:40:00,
2013-09-05 13:55:00,86.5,60.7,29.91,ESE,123,3.0,5.0,42,0.00,,,0.00,861,Wunderground v.1.15,2013-09-05 11:55:00,
2013-09-05 14:05:00,86.1,59.6,29.91,NNE,15,3.0,3.0,41,0.00,,,0.00,865,Wunderground v.1.15,2013-09-05 12:05:00,
2013-09-05 14:11:00,86.4,59.9,29.91,NE,37,3.0,3.0,41,0.00,,,0.00,860,Wunderground v.1.15,2013-09-05 12:11:00,
2013-09-05 14:20:00,86.5,59.3,29.91,SE,143,4.0,4.0,40,0.00,,,0.00,854,Wunderground v.1.15,2013-09-05 12:20:00,
2013-09-05 14:30:00,86.5,59.3,29.91,SE,132,4.0,5.0,40,0.00,,,0.00,851,Wunderground v.1.15,2013-09-05 12:30:00,
2013-09-05 14:35:00,86.6,58.7,29.91,SSE,150,3.0,5.0,39,0.00,,,0.00,853,Wunderground v.1.15,2013-09-05 12:35:00,
2013-09-05 14:45:00,87.6,58.9,29.90,NE,50,2.0,3.0,38,0.00,,,0.00,854,Wunderground v.1.15,2013-09-05 12:45:00,
2013-09-05 15:05:00,88.0,56.9,29.90,SSE,149,3.0,3.0,35,0.00,,,0.00,847,Wunderground v.1.15,2013-09-05 13:05:00,
2013-09-05 15:10:00,88.2,57.9,29.90,South,178,3.0,3.0,36,0.00,,,0.00,838,Wunderground v.1.15,2013-09-05 13:10:00,
2013-09-05 15:20:00,88.1,63.4,29.89,South,172,5.0,6.0,44,0.00,,,0.00,851,Wunderground v.1.15,2013-09-05 13:20:00,
2013-09-05 15:35:00,87.5,62.2,29.89,SE,125,5.0,5.0,43,0.00,,,0.00,780,Wunderground v.1.15,2013-09-05 13:35:00,
2013-09-05 15:46:00,87.5,60.9,29.89,ESE,106,3.0,4.0,41,0.00,,,0.00,777,Wunderground v.1.15,2013-09-05 13:46:00,
2013-09-05 16:05:00,87.4,64.7,29.89,SSW,200,5.0,7.0,47,0.00,,,0.00,777,Wunderground v.1.15,2013-09-05 14:05:00,
2013-09-05 16:15:00,86.6,64.0,29.89,SW,232,6.0,6.0,47,0.00,,,0.00,770,Wunderground v.1.15,2013-09-05 14:15:00,
2013-09-05 16:30:00,86.5,64.5,29.89,SSE,150,3.0,3.0,48,0.00,,,0.00,719,Wunderground v.1.15,2013-09-05 14:30:00,
2013-09-05 16:41:00,86.3,64.3,29.89,SSE,153,3.0,3.0,48,0.00,,,0.00,696,Wunderground v.1.15,2013-09-05 14:41:00,
2013-09-05 16:50:00,86.3,64.3,29.89,SSW,196,3.0,5.0,48,0.00,,,0.00,278,Wunderground v.1.15,2013-09-05 14:50:00,
2013-09-05 16:55:00,86.1,62.9,29.89,ENE,78,3.0,3.0,46,0.00,,,0.00,264,Wunderground v.1.15,2013-09-05 14:55:00,
2013-09-05 17:05:00,84.1,63.5,29.89,ESE,119,6.0,11.0,50,0.00,,,0.00,148,Wunderground v.1.15,2013-09-05 15:05:00,
2013-09-05 17:11:00,83.2,64.3,29.89,ESE,113,6.0,11.0,53,0.00,,,0.00,128,Wunderground v.1.15,2013-09-05 15:11:00,
2013-09-05 17:20:00,82.0,64.8,29.89,East,87,5.0,5.0,56,0.00,,,0.00,95,Wunderground v.1.15,2013-09-05 15:20:00,
2013-09-05 17:25:00,81.6,64.4,29.89,SE,126,4.0,4.0,56,0.00,,,0.00,104,Wunderground v.1.15,2013-09-05 15:25:00,
2013-09-05 17:36:00,81.1,65.4,29.89,ESE,117,3.0,4.0,59,0.00,,,0.00,156,Wunderground v.1.15,2013-09-05 15:36:00,
2013-09-05 17:45:00,80.3,65.6,29.89,SE,136,4.0,5.0,61,0.00,,,0.00,174,Wunderground v.1.15,2013-09-05 15:45:00,
2013-09-05 17:50:00,79.8,65.6,29.89,SSE,148,4.0,4.0,62,0.00,,,0.00,209,Wunderground v.1.15,2013-09-05 15:50:00,
2013-09-05 18:05:00,79.0,64.9,29.89,ESE,103,5.0,5.0,62,0.00,,,0.00,202,Wunderground v.1.15,2013-09-05 16:05:00,
2013-09-05 18:15:00,78.9,65.2,29.89,East,96,3.0,3.0,63,0.00,,,0.00,156,Wunderground v.1.15,2013-09-05 16:15:00,
2013-09-05 18:25:00,78.8,65.1,29.88,ENE,65,2.0,2.0,63,0.00,,,0.00,132,Wunderground v.1.15,2013-09-05 16:25:00,
2013-09-05 18:40:00,78.5,64.9,29.88,SE,134,1.0,1.0,63,0.00,,,0.00,95,Wunderground v.1.15,2013-09-05 16:40:00,
2013-09-05 18:50:00,78.4,64.8,29.88,SE,134,1.0,1.0,63,0.00,,,0.00,93,Wunderground v.1.15,2013-09-05 16:50:00,
2013-09-05 19:06:00,78.3,64.7,29.88,East,90,2.0,2.0,63,0.00,,,0.00,69,Wunderground v.1.15,2013-09-05 17:06:00,
2013-09-05 19:20:00,78.2,64.6,29.88,East,87,0.0,0.0,63,0.00,,,0.00,125,Wunderground v.1.15,2013-09-05 17:20:00,
2013-09-05 19:35:00,78.4,64.8,29.88,East,87,0.0,2.0,63,0.00,,,0.00,40,Wunderground v.1.15,2013-09-05 17:35:00,
2013-09-05 19:46:00,78.3,64.7,29.88,SE,134,2.0,2.0,63,0.00,,,0.00,33,Wunderground v.1.15,2013-09-05 17:46:00,
2013-09-05 20:05:00,77.7,64.1,29.87,ESE,117,1.0,1.0,63,0.00,,,0.00,12,Wunderground v.1.15,2013-09-05 18:05:00,
2013-09-05 20:15:00,77.3,63.7,29.87,ESE,117,1.0,1.0,63,0.00,,,0.00,0,Wunderground v.1.15,2013-09-05 18:15:00,
2013-09-05 20:26:00,77.1,64.0,29.88,ESE,117,0.0,1.0,64,0.00,,,0.00,0,Wunderground v.1.15,2013-09-05 18:26:00,
2013-09-05 20:41:00,76.7,64.0,29.88,ESE,117,1.0,1.0,65,0.00,,,0.00,0,Wunderground v.1.15,2013-09-05 18:41:00,
2013-09-05 20:55:00,76.0,63.4,29.88,ESE,117,1.0,1.0,65,0.00,,,0.00,0,Wunderground v.1.15,2013-09-05 18:55:00,
2013-09-05 21:10:00,75.3,63.2,29.89,ESE,117,0.0,0.0,66,0.00,,,0.00,0,Wunderground v.1.15,2013-09-05 19:10:00,
2013-09-05 21:25:00,74.9,62.8,29.89,ESE,117,0.0,0.0,66,0.00,,,0.00,0,Wunderground v.1.15,2013-09-05 19:25:00,
2013-09-05 21:35:00,74.6,62.9,29.89,ESE,117,1.0,2.0,67,0.00,,,0.00,0,Wunderground v.1.15,2013-09-05 19:35:00,
2013-09-05 21:50:00,73.7,62.9,29.89,ESE,117,1.0,2.0,69,0.00,,,0.00,0,Wunderground v.1.15,2013-09-05 19:50:00,
2013-09-05 22:05:00,72.8,62.4,29.89,SW,236,1.0,3.0,70,0.00,,,0.00,0,Wunderground v.1.15,2013-09-05 20:05:00,
2013-09-05 22:20:00,71.9,62.4,29.89,WSW,249,1.0,1.0,72,0.00,,,0.00,0,Wunderground v.1.15,2013-09-05 20:20:00,
2013-09-05 22:31:00,71.7,62.6,29.89,WSW,249,1.0,1.0,73,0.00,,,0.00,0,Wunderground v.1.15,2013-09-05 20:31:00,
2013-09-05 22:45:00,71.2,62.5,29.89,WSW,249,2.0,2.0,74,0.00,,,0.00,0,Wunderground v.1.15,2013-09-05 20:45:00,
2013-09-05 23:05:00,70.7,62.4,29.89,WSW,249,1.0,1.0,75,0.00,,,0.00,0,Wunderground v.1.15,2013-09-05 21:05:00,
2013-09-05 23:20:00,70.6,62.3,29.89,WSW,249,0.0,0.0,75,0.00,,,0.00,0,Wunderground v.1.15,2013-09-05 21:20:00,
2013-09-05 23:35:00,70.3,62.0,29.88,WSW,249,2.0,2.0,75,0.00,,,0.00,0,Wunderground v.1.15,2013-09-05 21:35:00,
2013-09-05 23:50:00,70.1,61.8,29.88,WSW,249,1.0,1.0,75,0.00,,,0.00,0,Wunderground v.1.15,2013-09-05 21:50:00,